Time;durP1;ratioP1;P1;durP2;ratioP2;P2;SDS_P1;SDS_P2;PMS_P1;PMS_P2;Temp;Humidity;BMP_temperature;BMP_pressure;BME280_temperature;BME280_humidity;BME280_pressure;Samples;Min_cycle;Max_cycle;Signal;HPM_P1;HPM_P2
2022/05/31 00:00:50;;;;;;;10.43;5.53;;;15.00;99.90;;;;;;4189339;28;20083;-63
2022/05/31 00:02:52;;;;;;;10.90;5.72;;;15.00;99.90;;;;;;4190176;28;20044;-62
2022/05/31 00:04:53;;;;;;;7.63;5.20;;;15.00;99.90;;;;;;4190964;28;20082;-62
2022/05/31 00:06:55;;;;;;;6.35;5.13;;;14.90;99.90;;;;;;4191787;28;20037;-62
2022/05/31 00:08:56;;;;;;;9.25;5.15;;;14.90;99.90;;;;;;4190931;28;20492;-62
2022/05/31 00:10:58;;;;;;;7.97;5.05;;;14.90;99.90;;;;;;4190061;28;20040;-62
2022/05/31 00:12:59;;;;;;;7.53;5.43;;;14.80;99.90;;;;;;4191278;28;20501;-62
2022/05/31 00:15:02;;;;;;;5.85;5.20;;;14.80;99.90;;;;;;4174551;28;20546;-63
2022/05/31 00:17:03;;;;;;;7.40;4.72;;;14.80;99.90;;;;;;4175744;28;20477;-62
2022/05/31 00:19:05;;;;;;;9.15;5.95;;;14.80;99.90;;;;;;4174022;28;20028;-62
2022/05/31 00:21:07;;;;;;;9.20;4.78;;;14.70;99.90;;;;;;4175134;28;20041;-62
2022/05/31 00:23:09;;;;;;;9.20;4.97;;;14.70;99.90;;;;;;4174017;28;20456;-62
2022/05/31 00:25:11;;;;;;;10.60;5.45;;;14.70;99.90;;;;;;4175454;28;20477;-62
2022/05/31 00:27:23;;;;;;;10.20;4.88;;;14.60;99.90;;;;;;4175026;28;20045;-61
2022/05/31 00:29:25;;;;;;;9.52;4.40;;;14.60;99.90;;;;;;4174322;28;20041;-62
2022/05/31 00:31:27;;;;;;;7.25;4.95;;;14.60;99.90;;;;;;4173515;28;20546;-62
2022/05/31 00:33:29;;;;;;;5.93;4.72;;;14.60;99.90;;;;;;4175996;28;20374;-63
2022/05/31 00:35:33;;;;;;;5.80;4.35;;;14.50;99.90;;;;;;4174107;28;20037;-62
2022/05/31 00:37:35;;;;;;;6.60;4.45;;;14.50;99.90;;;;;;4175489;28;20036;-62
2022/05/31 00:39:37;;;;;;;6.25;4.38;;;14.50;99.90;;;;;;4173510;28;20098;-62
2022/05/31 00:41:39;;;;;;;10.57;5.32;;;14.50;99.90;;;;;;4175122;28;20071;-62
2022/05/31 00:43:40;;;;;;;9.02;4.47;;;14.50;99.90;;;;;;4173554;28;20055;-62
2022/05/31 00:45:43;;;;;;;9.05;5.53;;;14.50;99.90;;;;;;4175255;28;20093;-62
2022/05/31 00:47:45;;;;;;;7.90;5.22;;;14.50;99.90;;;;;;4174238;28;20044;-62
2022/05/31 00:49:51;;;;;;;6.72;4.82;;;14.50;99.90;;;;;;4182629;28;20090;-61
2022/05/31 00:51:55;;;;;;;7.05;5.32;;;14.50;99.90;;;;;;4190757;28;20037;-62
2022/05/31 00:54:01;;;;;;;6.93;4.82;;;14.50;99.90;;;;;;4160713;28;20037;-62
2022/05/31 00:56:09;;;;;;;7.63;5.25;;;14.40;99.90;;;;;;4158591;28;20091;-63
2022/05/31 00:58:18;;;;;;;8.48;5.18;;;14.40;99.90;;;;;;4157560;28;20523;-62
2022/05/31 01:00:20;;;;;;;9.30;5.40;;;14.40;99.90;;;;;;4158215;28;20033;-62
2022/05/31 01:02:21;;;;;;;9.15;4.82;;;14.40;99.90;;;;;;4157674;28;20425;-62
2022/05/31 01:04:38;;;;;;;7.65;4.75;;;14.30;99.90;;;;;;4157912;28;20792;-62
2022/05/31 01:06:40;;;;;;;7.03;5.30;;;14.30;99.90;;;;;;4156951;28;20802;-61
2022/05/31 01:08:45;;;;;;;6.50;4.95;;;14.30;99.90;;;;;;4158184;28;20041;-62
2022/05/31 01:10:46;;;;;;;6.07;4.70;;;14.30;99.90;;;;;;4182035;28;20028;-63
2022/05/31 01:12:50;;;;;;;8.90;5.35;;;14.20;99.90;;;;;;4191091;28;20036;-62
2022/05/31 01:14:52;;;;;;;8.45;5.20;;;14.20;99.90;;;;;;4189832;28;20056;-62
2022/05/31 01:16:54;;;;;;;9.77;5.65;;;14.20;99.90;;;;;;4191337;28;20028;-62
2022/05/31 01:18:56;;;;;;;8.18;5.18;;;14.20;99.90;;;;;;4188071;28;20089;-63
2022/05/31 01:20:58;;;;;;;7.53;4.87;;;14.20;99.90;;;;;;4191260;28;20369;-63
2022/05/31 01:23:07;;;;;;;10.17;5.47;;;14.10;99.90;;;;;;4189462;28;20074;-63
2022/05/31 01:25:42;;;;;;;8.13;5.45;;;14.10;99.90;;;;;;4190876;28;20090;-63
2022/05/31 01:28:36;;;;;;;8.60;5.57;;;14.10;99.90;;;;;;4188982;28;20032;-63
2022/05/31 01:30:42;;;;;;;8.37;5.90;;;14.10;99.90;;;;;;4139504;28;20040;-63
2022/05/31 01:32:57;;;;;;;9.47;6.00;;;14.10;99.90;;;;;;4188928;28;20040;-63
2022/05/31 01:35:06;;;;;;;10.63;5.82;;;14.10;99.90;;;;;;4190398;28;20129;-63
2022/05/31 01:37:07;;;;;;;8.30;5.90;;;14.00;99.90;;;;;;4189710;28;20695;-64
2022/05/31 01:39:19;;;;;;;11.50;5.45;;;14.00;99.90;;;;;;4190061;28;20169;-63
2022/05/31 01:41:38;;;;;;;12.90;6.10;;;14.00;99.90;;;;;;4179002;28;20036;-63
2022/05/31 01:43:45;;;;;;;8.30;6.17;;;14.00;99.90;;;;;;4179367;28;20036;-63
2022/05/31 01:45:54;;;;;;;11.05;6.35;;;13.90;99.90;;;;;;4189406;28;20020;-63
2022/05/31 01:48:01;;;;;;;9.00;5.28;;;13.90;99.90;;;;;;4188786;28;20078;-64
2022/05/31 01:50:07;;;;;;;8.80;6.23;;;13.80;99.90;;;;;;4188452;28;20066;-63
2022/05/31 01:52:10;;;;;;;12.47;6.53;;;13.80;99.90;;;;;;4177988;28;20028;-63
2022/05/31 01:54:14;;;;;;;8.30;5.83;;;13.80;99.90;;;;;;4189165;28;20098;-63
2022/05/31 01:56:16;;;;;;;8.37;5.87;;;13.80;99.90;;;;;;4190122;28;20029;-63
2022/05/31 01:58:22;;;;;;;11.23;6.40;;;13.80;99.90;;;;;;4189193;28;20483;-63
2022/05/31 02:00:23;;;;;;;9.30;5.90;;;13.80;99.90;;;;;;4187367;28;20601;-63
2022/05/31 02:02:25;;;;;;;9.60;5.97;;;13.80;99.90;;;;;;4172973;28;20075;-63
2022/05/31 02:04:26;;;;;;;9.97;6.23;;;13.80;99.90;;;;;;4174155;28;20079;-63
2022/05/31 02:06:31;;;;;;;8.23;6.20;;;13.80;99.90;;;;;;4172384;28;20029;-62
2022/05/31 02:08:33;;;;;;;11.40;6.20;;;13.70;99.90;;;;;;4173812;28;20071;-63
2022/05/31 02:10:34;;;;;;;10.03;6.00;;;13.70;99.90;;;;;;4172318;28;20037;-63
2022/05/31 02:12:36;;;;;;;6.97;5.53;;;13.70;99.90;;;;;;4173827;28;20095;-63
2022/05/31 02:14:38;;;;;;;8.13;6.07;;;13.70;99.90;;;;;;4172374;28;20048;-63
2022/05/31 02:16:39;;;;;;;11.83;5.90;;;13.70;99.90;;;;;;4183526;28;20450;-63
2022/05/31 02:21:07;;;;;;;11.03;5.57;;;13.70;99.90;;;;;;4164365;28;20071;-63
2022/05/31 02:23:09;;;;;;;8.67;5.93;;;13.70;99.90;;;;;;4172292;28;20755;-63
2022/05/31 02:25:10;;;;;;;10.03;5.63;;;13.70;99.90;;;;;;4172915;28;20037;-63
2022/05/31 02:27:14;;;;;;;12.87;5.70;;;13.60;99.90;;;;;;4173025;28;20105;-63
2022/05/31 02:29:18;;;;;;;13.23;5.67;;;13.60;99.90;;;;;;4172602;28;20079;-63
2022/05/31 02:31:19;;;;;;;8.13;5.30;;;13.60;99.90;;;;;;4172906;28;20075;-63
2022/05/31 02:33:20;;;;;;;13.93;5.90;;;13.60;99.90;;;;;;4173020;28;20032;-63
2022/05/31 02:35:21;;;;;;;9.20;5.17;;;13.60;99.90;;;;;;4173677;28;20099;-63
2022/05/31 02:37:22;;;;;;;9.20;6.00;;;13.50;99.90;;;;;;4171657;28;20557;-63
2022/05/31 02:39:24;;;;;;;15.13;5.30;;;13.50;99.90;;;;;;4187123;28;20042;-63
2022/05/31 02:41:25;;;;;;;9.70;5.63;;;13.50;99.90;;;;;;4188292;28;20048;-63
2022/05/31 02:43:26;;;;;;;7.33;5.23;;;13.50;99.90;;;;;;4187405;28;20109;-63
2022/05/31 02:45:28;;;;;;;11.40;5.87;;;13.40;99.90;;;;;;4171848;28;20040;-63
2022/05/31 02:47:29;;;;;;;8.77;5.93;;;13.40;99.90;;;;;;4173101;28;20032;-63
2022/05/31 02:49:30;;;;;;;9.03;5.53;;;13.40;99.90;;;;;;4171686;28;20055;-62
2022/05/31 02:51:39;;;;;;;9.73;6.10;;;13.40;99.90;;;;;;4186722;28;20055;-63
2022/05/31 02:53:40;;;;;;;8.50;5.37;;;13.40;99.90;;;;;;4188035;28;20025;-62
2022/05/31 02:55:41;;;;;;;9.43;6.67;;;13.50;99.90;;;;;;4186854;28;20036;-62
2022/05/31 02:57:42;;;;;;;11.90;6.10;;;13.40;99.90;;;;;;4188511;28;20033;-62
2022/05/31 02:59:43;;;;;;;9.13;6.07;;;13.50;99.90;;;;;;4188952;28;20099;-63
2022/05/31 03:01:45;;;;;;;10.33;5.70;;;13.50;99.90;;;;;;4188589;28;20062;-62
2022/05/31 03:03:46;;;;;;;9.90;5.50;;;13.50;99.90;;;;;;4188308;28;20028;-62
2022/05/31 03:05:49;;;;;;;18.90;6.20;;;13.60;99.90;;;;;;4189510;28;20487;-64
2022/05/31 03:07:50;;;;;;;10.67;5.83;;;13.70;99.90;;;;;;4181190;28;20033;-63
2022/05/31 03:09:51;;;;;;;9.07;5.53;;;13.90;99.90;;;;;;4189422;28;20032;-63
2022/05/31 03:12:10;;;;;;;7.60;4.97;;;14.00;99.90;;;;;;4172901;28;20452;-63
2022/05/31 03:14:39;;;;;;;6.47;5.07;;;14.10;99.90;;;;;;4172447;28;20070;-63
2022/05/31 03:16:43;;;;;;;12.00;4.77;;;14.30;99.90;;;;;;4172064;28;20037;-63
2022/05/31 03:18:55;;;;;;;6.83;4.87;;;14.40;99.90;;;;;;4172682;28;20098;-63
2022/05/31 03:20:59;;;;;;;5.60;4.87;;;14.50;99.90;;;;;;4171675;28;20022;-63
2022/05/31 03:23:06;;;;;;;7.17;4.83;;;14.70;99.90;;;;;;4172456;28;20083;-64
2022/05/31 03:25:14;;;;;;;8.85;5.13;;;14.80;99.90;;;;;;4171593;28;20079;-62
2022/05/31 03:27:15;;;;;;;11.13;4.80;;;14.90;99.90;;;;;;4172444;28;20127;-63
2022/05/31 03:29:17;;;;;;;5.90;4.40;;;15.20;99.90;;;;;;4184611;28;20090;-63
2022/05/31 03:31:18;;;;;;;9.30;5.05;;;15.30;99.90;;;;;;4189611;28;20414;-64
2022/05/31 03:33:19;;;;;;;10.73;4.78;;;15.40;99.90;;;;;;4177775;28;20416;-63
2022/05/31 03:35:20;;;;;;;10.63;4.70;;;15.40;99.90;;;;;;4178990;28;20044;-64
2022/05/31 03:37:21;;;;;;;6.70;4.47;;;15.60;99.90;;;;;;4172296;28;20119;-63
2022/05/31 03:39:22;;;;;;;10.20;5.63;;;15.80;99.90;;;;;;4172834;28;20075;-64
2022/05/31 03:41:23;;;;;;;7.88;4.65;;;16.10;99.90;;;;;;4171189;28;20037;-65
2022/05/31 03:43:27;;;;;;;7.35;4.30;;;16.50;99.90;;;;;;4172505;28;20040;-63
2022/05/31 03:45:46;;;;;;;9.88;4.43;;;16.90;99.90;;;;;;4171877;28;20045;-63
2022/05/31 03:47:47;;;;;;;8.98;4.47;;;17.30;99.90;;;;;;4172593;28;20045;-64
2022/05/31 03:49:48;;;;;;;8.55;4.28;;;17.80;99.90;;;;;;4171605;28;20072;-64
2022/05/31 03:51:49;;;;;;;8.50;5.00;;;18.10;99.90;;;;;;4175501;28;20851;-63
2022/05/31 03:53:50;;;;;;;6.50;3.92;;;18.20;99.90;;;;;;4171221;28;20512;-67
2022/05/31 03:55:52;;;;;;;9.38;4.22;;;18.40;99.90;;;;;;4171218;28;20091;-61
2022/05/31 03:57:53;;;;;;;10.25;5.10;;;18.70;99.90;;;;;;4174435;28;20088;-63
2022/05/31 03:59:54;;;;;;;7.35;4.18;;;18.80;99.90;;;;;;4187676;28;20082;-62
2022/05/31 04:01:55;;;;;;;5.80;4.10;;;18.90;99.90;;;;;;4188315;28;20492;-64
2022/05/31 04:03:57;;;;;;;6.32;3.78;;;19.00;99.90;;;;;;4178883;28;20091;-63
2022/05/31 04:05:58;;;;;;;10.95;4.22;;;19.30;99.90;;;;;;4175137;28;20095;-64
2022/05/31 04:08:06;;;;;;;8.43;3.78;;;19.60;99.90;;;;;;4172599;28;20032;-63
2022/05/31 04:10:08;;;;;;;5.70;3.50;;;20.30;99.90;;;;;;4173879;28;20126;-64
2022/05/31 04:12:09;;;;;;;4.57;3.78;;;20.60;99.90;;;;;;4173631;28;20044;-63
2022/05/31 04:14:10;;;;;;;9.02;3.85;;;20.90;99.90;;;;;;4174976;28;20044;-63
2022/05/31 04:16:15;;;;;;;9.45;3.67;;;20.80;99.90;;;;;;4173787;28;20033;-65
2022/05/31 04:18:16;;;;;;;5.20;3.28;;;20.60;99.90;;;;;;4180638;28;20040;-64
2022/05/31 04:20:17;;;;;;;5.78;3.67;;;20.90;99.90;;;;;;4190051;28;20086;-63
2022/05/31 04:22:19;;;;;;;7.68;3.08;;;21.00;99.90;;;;;;4177972;28;20815;-65
2022/05/31 04:24:22;;;;;;;5.88;3.45;;;21.20;99.90;;;;;;4173090;28;20033;-63
2022/05/31 04:26:24;;;;;;;5.95;3.35;;;;;;;;;;4173827;28;20045;-64
2022/05/31 04:28:25;;;;;;;5.07;3.30;;;;;;;;;;4173595;28;20408;-64
2022/05/31 04:30:27;;;;;;;5.78;3.20;;;;;;;;;;4173973;28;20090;-64
2022/05/31 04:32:28;;;;;;;6.80;3.60;;;;;;;;;;4174106;28;20033;-63
2022/05/31 04:34:30;;;;;;;11.65;3.70;;;;;;;;;;4175273;28;20044;-65
2022/05/31 04:36:31;;;;;;;8.05;3.53;;;;;;;;;;4184760;28;20032;-63
2022/05/31 04:38:33;;;;;;;8.20;3.70;;;21.60;99.90;;;;;;4174548;28;20092;-65
2022/05/31 04:40:38;;;;;;;6.53;3.90;;;22.60;99.90;;;;;;4174550;28;20427;-63
2022/05/31 04:42:42;;;;;;;7.95;3.28;;;22.90;99.90;;;;;;4172988;28;20099;-63
2022/05/31 04:44:43;;;;;;;6.72;3.17;;;22.90;99.90;;;;;;4173984;28;20045;-63
2022/05/31 04:46:45;;;;;;;7.43;3.15;;;23.00;99.90;;;;;;4185421;28;20025;-65
2022/05/31 04:48:46;;;;;;;9.57;3.30;;;23.00;99.90;;;;;;4156422;28;20045;-64
2022/05/31 04:50:48;;;;;;;9.48;3.42;;;;;;;;;;4159951;28;20490;-60
2022/05/31 04:52:49;;;;;;;7.65;3.42;;;;;;;;;;4174375;28;20029;-64
2022/05/31 04:54:51;;;;;;;4.13;3.05;;;;;;;;;;4172819;28;20052;-64
2022/05/31 04:56:53;;;;;;;4.20;2.78;;;;;;;;;;4174966;28;20059;-65
2022/05/31 04:58:54;;;;;;;5.70;2.92;;;;;;;;;;4173546;28;20086;-63
2022/05/31 05:00:56;;;;;;;7.20;3.30;;;;;;;;;;4173831;28;20146;-63
2022/05/31 05:02:57;;;;;;;5.28;2.80;;;;;;;;;;4172687;28;20769;-63
2022/05/31 05:04:59;;;;;;;4.65;2.72;;;;;;;;;;4172484;28;20036;-64
2022/05/31 05:07:00;;;;;;;7.63;3.17;;;;;;;;;;4172644;28;20037;-64
2022/05/31 05:09:02;;;;;;;6.70;2.80;;;;;;;;;;4172719;28;20074;-63
2022/05/31 05:11:04;;;;;;;7.53;3.58;;;;;;;;;;4173738;28;20082;-64
2022/05/31 05:13:06;;;;;;;3.50;2.97;;;;;;;;;;4173265;28;20509;-65
2022/05/31 05:15:08;;;;;;;6.72;2.42;;;;;;;;;;4173572;28;20040;-63
2022/05/31 05:17:09;;;;;;;3.55;2.45;;;;;;;;;;4173243;28;20074;-62
2022/05/31 05:19:12;;;;;;;9.77;2.33;;;;;;;;;;4174011;28;20106;-62
2022/05/31 05:21:15;;;;;;;4.05;2.22;;;;;;;;;;4172973;28;20126;-63
2022/05/31 05:23:16;;;;;;;3.30;1.85;;;;;;;;;;4173751;28;20097;-64
2022/05/31 05:25:17;;;;;;;4.43;1.90;;;;;;;;;;4172701;28;20032;-63
2022/05/31 05:27:19;;;;;;;3.45;2.03;;;;;;;;;;4173643;28;20090;-64
2022/05/31 05:31:41;;;;;;;3.45;1.42;;;;;;;;;;4174202;28;20044;-64
2022/05/31 05:33:43;;;;;;;4.82;1.38;;;;;;;;;;4172526;28;20021;-62
2022/05/31 05:35:44;;;;;;;4.00;1.40;;;;;;;;;;4173584;28;20114;-64
2022/05/31 05:37:46;;;;;;;3.40;2.10;;;;;;;;;;4172847;28;20021;-63
2022/05/31 05:39:47;;;;;;;5.28;1.58;;;;;;;;;;4172903;28;20029;-63
2022/05/31 05:41:49;;;;;;;2.35;1.33;;;;;;;;;;4172663;28;20066;-63
2022/05/31 05:43:51;;;;;;;1.98;1.15;;;;;;;;;;4172757;28;20881;-64
2022/05/31 05:45:52;;;;;;;1.30;1.00;;;;;;;;;;4173671;28;20044;-64
2022/05/31 05:47:54;;;;;;;3.05;1.10;;;;;;;;;;4173032;28;20156;-64
2022/05/31 05:49:55;;;;;;;4.05;1.08;;;;;;;;;;4173695;28;20094;-64
2022/05/31 05:51:59;;;;;;;3.22;1.40;;;;;;;;;;4172607;28;20036;-64
2022/05/31 05:54:02;;;;;;;4.72;1.48;;;;;;;;;;4173576;28;20033;-64
2022/05/31 05:56:04;;;;;;;2.17;1.38;;;;;;;;;;4172357;28;20835;-66
2022/05/31 05:58:08;;;;;;;3.35;2.00;;;;;;;;;;4172364;28;20115;-62
2022/05/31 06:00:09;;;;;;;6.60;1.80;;;;;;;;;;4171962;28;20075;-63
2022/05/31 06:02:31;;;;;;;5.95;1.40;;;;;;;;;;4173672;28;20036;-63
2022/05/31 06:04:37;;;;;;;3.35;1.00;;;;;;;;;;4171904;28;20427;-63
2022/05/31 06:06:40;;;;;;;3.30;1.27;;;;;;;;;;4173515;28;20102;-65
2022/05/31 06:08:46;;;;;;;4.07;1.17;;;;;;;;;;4172085;28;20041;-63
2022/05/31 06:10:56;;;;;;;6.20;2.13;;;;;;;;;;4173096;28;20099;-63
2022/05/31 06:13:14;;;;;;;4.07;1.60;;;;;;;;;;4171639;28;20053;-66
2022/05/31 06:15:18;;;;;;;5.32;1.80;;;;;;;;;;4173241;28;20496;-63
2022/05/31 06:17:22;;;;;;;10.75;2.67;;;;;;;;;;4171342;28;20013;-63
2022/05/31 06:19:25;;;;;;;5.95;1.98;;;;;;;;;;4173395;28;20025;-65
2022/05/31 06:21:27;;;;;;;7.82;3.08;;;;;;;;;;4171925;28;20040;-63
2022/05/31 06:23:28;;;;;;;9.32;2.13;;;;;;;;;;4172826;28;20037;-63
2022/05/31 06:25:30;;;;;;;10.60;2.28;;;;;;;;;;4172086;28;20411;-64
2022/05/31 06:27:31;;;;;;;15.75;2.10;;;;;;;;;;4172542;28;20499;-64
2022/05/31 06:29:33;;;;;;;6.32;1.80;;;;;;;;;;4172262;28;20029;-63
2022/05/31 06:31:34;;;;;;;12.98;3.15;;;;;;;;;;4172812;28;20049;-63
2022/05/31 06:33:36;;;;;;;32.65;6.00;;;;;;;;;;4172173;28;20083;-63
2022/05/31 06:35:37;;;;;;;20.98;4.20;;;;;;;;;;4171909;28;20072;-62
2022/05/31 06:37:38;;;;;;;17.73;3.38;;;;;;;;;;4171695;28;20083;-64
2022/05/31 06:39:41;;;;;;;18.23;3.72;;;;;;;;;;4170514;28;20090;-64
2022/05/31 06:41:42;;;;;;;18.55;3.00;;;;;;;;;;4171772;28;20036;-65
2022/05/31 06:43:44;;;;;;;14.00;2.80;;;;;;;;;;4172368;28;20041;-63
2022/05/31 06:45:45;;;;;;;10.77;1.88;;;;;;;;;;4173148;28;20029;-63
2022/05/31 06:47:46;;;;;;;6.18;1.85;;;;;;;;;;4172206;28;20037;-63
2022/05/31 06:49:48;;;;;;;14.25;2.15;;;;;;;;;;4172703;28;20086;-64
2022/05/31 06:58:32;;;;;;;31.35;4.20;;;;;;;;;;4173056;28;20052;-63
2022/05/31 07:00:33;;;;;;;12.32;2.17;;;;;;;;;;4171835;28;20487;-63
2022/05/31 07:02:35;;;;;;;6.72;1.20;;;;;;;;;;4172816;28;20431;-63
2022/05/31 07:04:37;;;;;;;3.58;1.27;;;;;;;;;;4171565;28;20041;-63
2022/05/31 07:06:39;;;;;;;4.28;1.50;;;;;;;;;;4172900;28;20048;-64
2022/05/31 07:08:40;;;;;;;5.03;1.88;;;;;;;;;;4171174;28;20443;-63
2022/05/31 07:10:41;;;;;;;6.18;2.00;;;;;;;;;;4172180;28;20044;-63
2022/05/31 07:12:43;;;;;;;8.07;2.25;;;;;;;;;;4171738;28;20013;-65
2022/05/31 07:14:44;;;;;;;7.60;2.10;;;;;;;;;;4172219;28;20107;-65
2022/05/31 07:16:46;;;;;;;10.20;1.85;;;;;;;;;;4171888;28;20041;-64
2022/05/31 07:18:47;;;;;;;6.28;1.88;;;23.20;99.90;;;;;;4170941;28;20025;-65
2022/05/31 07:20:48;;;;;;;6.70;2.05;;;23.90;89.00;;;;;;4172314;28;20082;-66
2022/05/31 07:22:51;;;;;;;2.55;1.58;;;23.50;90.10;;;;;;4171387;28;20029;-63
2022/05/31 07:24:52;;;;;;;2.83;1.20;;;23.30;90.30;;;;;;4172681;28;20033;-63
2022/05/31 07:26:54;;;;;;;4.75;1.27;;;23.00;90.60;;;;;;4169961;28;20025;-63
2022/05/31 07:28:56;;;;;;;3.55;1.33;;;23.30;90.90;;;;;;4172905;28;20090;-66
2022/05/31 07:30:57;;;;;;;3.03;1.52;;;23.60;91.00;;;;;;4171446;28;20163;-63
2022/05/31 07:32:58;;;;;;;2.67;1.60;;;23.60;90.90;;;;;;4171613;28;20033;-64
2022/05/31 07:34:59;;;;;;;3.50;1.80;;;23.50;91.10;;;;;;4171180;28;20049;-63
2022/05/31 07:37:00;;;;;;;2.60;1.60;;;23.30;91.20;;;;;;4172572;28;20045;-64
2022/05/31 07:39:02;;;;;;;3.30;2.13;;;23.30;91.30;;;;;;4173811;28;20392;-64
2022/05/31 07:41:03;;;;;;;6.05;3.85;;;;;;;;;;4175585;28;20420;-63
2022/05/31 07:43:05;;;;;;;3.20;2.00;;;23.80;91.30;;;;;;4174300;28;20712;-63
2022/05/31 07:45:06;;;;;;;3.92;1.77;;;23.80;91.10;;;;;;4175109;28;20437;-63
2022/05/31 07:47:07;;;;;;;3.75;1.88;;;23.70;91.20;;;;;;4174365;28;20537;-65
2022/05/31 07:49:09;;;;;;;2.80;1.95;;;23.60;91.40;;;;;;4174078;28;20074;-63
2022/05/31 07:51:10;;;;;;;3.13;2.00;;;23.50;91.60;;;;;;4175654;28;20041;-64
2022/05/31 07:53:11;;;;;;;2.92;2.22;;;23.00;91.90;;;;;;4174473;28;20455;-64
2022/05/31 07:55:12;;;;;;;6.68;2.42;;;22.80;92.50;;;;;;4175820;28;20041;-64
2022/05/31 07:59:35;;;;;;;5.85;2.22;;;22.40;93.10;;;;;;4176010;28;20040;-65
2022/05/31 08:01:36;;;;;;;7.45;2.00;;;22.40;93.50;;;;;;4174233;28;20091;-63
2022/05/31 08:03:38;;;;;;;7.05;2.63;;;22.10;93.80;;;;;;4175499;28;20033;-63
2022/05/31 08:05:40;;;;;;;4.35;2.10;;;22.10;94.10;;;;;;4174281;28;20033;-64
2022/05/31 08:07:41;;;;;;;3.55;2.40;;;22.00;94.40;;;;;;4175285;28;20025;-63
2022/05/31 08:09:42;;;;;;;4.80;2.22;;;22.00;94.60;;;;;;4174011;28;20090;-65
2022/05/31 08:11:44;;;;;;;2.03;1.70;;;22.20;94.50;;;;;;4175604;28;20504;-65
2022/05/31 08:13:46;;;;;;;4.53;2.88;;;22.40;94.30;;;;;;4174033;28;20021;-63
2022/05/31 08:15:47;;;;;;;4.80;2.22;;;22.90;94.20;;;;;;4175489;28;20053;-63
2022/05/31 08:17:48;;;;;;;3.58;2.70;;;22.60;94.10;;;;;;4173795;28;20078;-64
2022/05/31 08:19:49;;;;;;;2.38;2.17;;;22.30;94.50;;;;;;4174250;28;20024;-63
2022/05/31 08:21:50;;;;;;;2.80;2.25;;;22.20;94.80;;;;;;4174417;28;20024;-63
2022/05/31 08:23:51;;;;;;;5.43;2.15;;;22.10;95.00;;;;;;4174291;28;21576;-63
2022/05/31 08:25:54;;;;;;;4.15;2.10;;;22.10;95.20;;;;;;4175004;28;20103;-63
2022/05/31 08:27:55;;;;;;;4.03;2.70;;;22.20;95.10;;;;;;4173452;28;20083;-63
2022/05/31 08:29:56;;;;;;;5.00;2.60;;;22.20;95.10;;;;;;4173553;28;20025;-66
2022/05/31 08:31:58;;;;;;;4.85;2.55;;;22.30;95.20;;;;;;4173653;28;20087;-63
2022/05/31 08:33:59;;;;;;;4.85;2.25;;;22.50;95.10;;;;;;4175123;28;20519;-64
2022/05/31 08:36:00;;;;;;;5.90;2.67;;;22.60;95.10;;;;;;4173320;28;20159;-64
2022/05/31 08:38:02;;;;;;;6.53;2.33;;;22.40;95.20;;;;;;4174619;28;20041;-64
2022/05/31 08:40:03;;;;;;;5.03;2.28;;;22.30;95.40;;;;;;4173019;28;20036;-63
2022/05/31 08:42:18;;;;;;;4.78;2.70;;;22.40;95.40;;;;;;4174324;28;20037;-63
2022/05/31 08:44:28;;;;;;;4.28;3.00;;;22.50;95.40;;;;;;4173030;28;20052;-63
2022/05/31 08:46:54;;;;;;;7.18;3.58;;;22.60;95.30;;;;;;4174709;28;20111;-64
2022/05/31 08:49:01;;;;;;;4.47;2.65;;;22.30;95.50;;;;;;4172884;28;20468;-63
2022/05/31 08:53:40;;;;;;;7.13;2.70;;;22.40;95.70;;;;;;4172926;28;20511;-64
2022/05/31 08:58:43;;;;;;;3.72;2.75;;;22.40;95.80;;;;;;4171065;28;20106;-62
2022/05/31 09:00:48;;;;;;;5.90;2.90;;;22.50;95.90;;;;;;4172724;28;20567;-63
2022/05/31 09:03:07;;;;;;;5.60;2.78;;;22.50;96.00;;;;;;4173714;28;20370;-62
2022/05/31 09:05:29;;;;;;;3.88;2.60;;;22.40;96.10;;;;;;4172987;28;20033;-63
2022/05/31 09:07:36;;;;;;;8.82;2.78;;;22.30;96.40;;;;;;4173998;28;20025;-65
2022/05/31 09:10:01;;;;;;;3.75;2.75;;;22.50;96.50;;;;;;4173107;28;20714;-61
2022/05/31 09:12:22;;;;;;;4.20;2.78;;;22.70;96.20;;;;;;4173857;28;20029;-63
2022/05/31 09:15:01;;;;;;;3.97;2.45;;;22.90;96.00;;;;;;4172976;28;20040;-63
2022/05/31 09:17:11;;;;;;;6.68;2.85;;;23.30;95.90;;;;;;4150976;28;20044;-64
2022/05/31 09:19:46;;;;;;;6.05;2.83;;;23.60;95.20;;;;;;4172806;28;20037;-64
2022/05/31 09:21:49;;;;;;;5.85;3.00;;;23.70;95.00;;;;;;4173803;28;20142;-66
2022/05/31 09:23:51;;;;;;;4.70;3.00;;;23.50;95.20;;;;;;4172494;28;20087;-63
2022/05/31 09:26:21;;;;;;;4.97;3.00;;;23.30;95.40;;;;;;4174232;28;20469;-63
2022/05/31 09:28:36;;;;;;;7.72;2.83;;;22.80;95.80;;;;;;4172766;28;20115;-63
2022/05/31 09:30:43;;;;;;;6.10;2.83;;;22.80;96.20;;;;;;4174265;28;20055;-64
2022/05/31 09:32:53;;;;;;;8.27;3.13;;;22.80;96.30;;;;;;4173094;28;20091;-65
2022/05/31 09:35:14;;;;;;;4.90;2.85;;;23.00;96.30;;;;;;4173492;28;20053;-65
2022/05/31 09:37:17;;;;;;;5.13;2.80;;;23.10;96.20;;;;;;4172691;28;20093;-66
2022/05/31 09:39:39;;;;;;;4.95;3.42;;;23.40;96.10;;;;;;4173479;28;20123;-64
2022/05/31 09:41:58;;;;;;;4.68;2.92;;;23.40;96.00;;;;;;4172503;28;20099;-65
2022/05/31 09:44:24;;;;;;;5.70;3.10;;;23.30;95.90;;;;;;4172727;28;20021;-65
2022/05/31 09:46:53;;;;;;;3.42;2.70;;;23.10;96.10;;;;;;4173210;28;20036;-64
2022/05/31 09:48:56;;;;;;;5.20;2.47;;;22.90;96.50;;;;;;4172192;28;20028;-63
2022/05/31 09:51:16;;;;;;;5.47;3.10;;;22.90;96.70;;;;;;4173243;28;20025;-64
2022/05/31 09:58:06;;;;;;;3.40;2.92;;;22.60;97.10;;;;;;4171972;28;20083;-63
2022/05/31 10:00:20;;;;;;;4.50;2.83;;;22.60;97.00;;;;;;4173742;28;20079;-63
2022/05/31 10:02:24;;;;;;;6.65;2.90;;;22.60;97.00;;;;;;4172005;28;20429;-64
2022/05/31 10:04:30;;;;;;;6.00;2.65;;;22.50;97.10;;;;;;4173454;28;20086;-63
2022/05/31 10:06:32;;;;;;;3.92;2.70;;;22.40;97.20;;;;;;4171794;28;20083;-64
2022/05/31 10:08:34;;;;;;;3.05;2.35;;;22.50;97.20;;;;;;4171391;28;20045;-63
2022/05/31 10:10:36;;;;;;;3.60;2.40;;;22.50;97.30;;;;;;4171488;28;20091;-63
2022/05/31 10:12:47;;;;;;;3.55;2.40;;;22.60;97.30;;;;;;4172929;28;20044;-65
2022/05/31 10:14:51;;;;;;;8.02;2.92;;;22.70;97.10;;;;;;4171337;28;20140;-63
2022/05/31 10:16:54;;;;;;;3.90;2.40;;;22.90;96.70;;;;;;4172708;28;20053;-64
2022/05/31 10:18:57;;;;;;;10.27;2.78;;;22.90;96.50;;;;;;4172155;28;20048;-63
2022/05/31 10:21:02;;;;;;;2.72;2.50;;;23.10;96.60;;;;;;4172831;28;20422;-64
2022/05/31 10:23:13;;;;;;;5.72;2.38;;;23.30;96.50;;;;;;4172090;28;20531;-64
2022/05/31 10:25:35;;;;;;;7.55;3.30;;;23.30;96.20;;;;;;4171981;28;20025;-64
2022/05/31 10:27:37;;;;;;;7.30;3.35;;;23.30;96.10;;;;;;4172070;28;20110;-65
2022/05/31 10:29:51;;;;;;;5.68;3.10;;;23.10;96.60;;;;;;4172845;28;20034;-64
2022/05/31 10:31:53;;;;;;;4.32;2.97;;;23.00;96.60;;;;;;4172075;28;20041;-65
2022/05/31 10:34:00;;;;;;;6.57;3.55;;;23.00;96.80;;;;;;4171982;28;20057;-63
2022/05/31 10:36:18;;;;;;;8.05;3.17;;;23.10;97.00;;;;;;4171436;28;20801;-65
2022/05/31 10:38:22;;;;;;;7.93;3.17;;;23.10;96.70;;;;;;4172887;28;20028;-64
2022/05/31 10:40:33;;;;;;;4.47;3.10;;;22.90;96.70;;;;;;4172113;28;20017;-65
2022/05/31 10:42:41;;;;;;;5.28;3.13;;;23.00;96.70;;;;;;4172315;28;20056;-63
2022/05/31 10:44:50;;;;;;;3.63;2.80;;;23.00;96.70;;;;;;4171736;28;20091;-63
2022/05/31 10:46:59;;;;;;;5.35;2.72;;;23.20;96.60;;;;;;4172194;28;20098;-63
2022/05/31 10:49:04;;;;;;;6.13;3.38;;;23.30;96.00;;;;;;4171826;28;20045;-65
2022/05/31 10:51:32;;;;;;;8.90;3.53;;;23.30;96.00;;;;;;4171811;28;20028;-63
2022/05/31 10:53:42;;;;;;;8.15;3.72;;;23.40;96.00;;;;;;4169440;28;20147;-64
2022/05/31 10:55:56;;;;;;;5.68;3.13;;;23.30;96.10;;;;;;4172428;28;20083;-64
2022/05/31 10:58:00;;;;;;;5.78;2.92;;;23.20;96.20;;;;;;4171128;28;20115;-64
2022/05/31 11:00:08;;;;;;;4.03;3.22;;;23.30;96.30;;;;;;4173387;28;20114;-64
2022/05/31 11:02:40;;;;;;;6.13;3.30;;;23.20;96.20;;;;;;4171714;28;20021;-64
2022/05/31 11:05:09;;;;;;;5.55;3.28;;;23.20;96.40;;;;;;4172360;28;20469;-65
2022/05/31 11:07:19;;;;;;;5.10;3.30;;;23.40;96.40;;;;;;4171301;28;20025;-63
2022/05/31 11:12:29;;;;;;;;;;;23.50;95.10;;;;;;4172662;28;20086;-66
2022/05/31 11:14:57;;;;;;;5.85;2.83;;;23.70;95.40;;;;;;4177382;28;21246;-64
2022/05/31 11:17:08;;;;;;;7.20;4.60;;;23.70;95.20;;;;;;4176827;28;20045;-63
2022/05/31 11:19:48;;;;;;;7.50;3.35;;;23.70;95.60;;;;;;4176988;28;20626;-63
2022/05/31 11:22:08;;;;;;;12.32;3.67;;;23.70;95.70;;;;;;4176956;28;20033;-63
2022/05/31 11:24:46;;;;;;;12.40;3.00;;;23.70;96.60;;;;;;4174870;28;20044;-63
2022/05/31 11:27:14;;;;;;;5.47;2.70;;;23.60;96.40;;;;;;4176758;28;21010;-64
2022/05/31 11:29:37;;;;;;;6.13;3.15;;;23.40;96.50;;;;;;4176597;28;20091;-62
2022/05/31 11:31:56;;;;;;;5.18;2.80;;;23.10;96.60;;;;;;4177515;28;20036;-63
2022/05/31 11:34:04;;;;;;;3.40;2.60;;;22.90;97.20;;;;;;4176943;28;20041;-65
2022/05/31 11:36:31;;;;;;;7.57;2.53;;;22.80;97.40;;;;;;4177751;28;20788;-63
2022/05/31 11:38:51;;;;;;;6.65;2.70;;;22.70;97.90;;;;;;4176550;28;20033;-64
2022/05/31 11:41:04;;;;;;;4.80;2.83;;;22.70;97.80;;;;;;4176880;28;20090;-64